sensor_id;sensor_type;location;lat;lon;timestamp;pressure;altitude;pressure_sealevel;temperature;humidity
23176;BME280;19910;42.652;23.332;2023-02-08T00:00:05;96192.59;;;-5.01;76.95
23176;BME280;19910;42.652;23.332;2023-02-08T00:02:32;96190.66;;;-4.85;76.33
23176;BME280;19910;42.652;23.332;2023-02-08T00:04:58;96192.56;;;-4.79;76.61
23176;BME280;19910;42.652;23.332;2023-02-08T00:07:25;96197.97;;;-4.87;75.79
23176;BME280;19910;42.652;23.332;2023-02-08T00:09:52;96194.78;;;-4.76;76.19
23176;BME280;19910;42.652;23.332;2023-02-08T00:12:19;96208.88;;;-4.69;75.78
23176;BME280;19910;42.652;23.332;2023-02-08T00:14:45;96204.88;;;-4.86;76.38
23176;BME280;19910;42.652;23.332;2023-02-08T00:17:14;96204.22;;;-4.67;76.11
23176;BME280;19910;42.652;23.332;2023-02-08T00:19:40;96203.50;;;-4.48;76.69
23176;BME280;19910;42.652;23.332;2023-02-08T00:22:07;96204.69;;;-4.57;76.31
23176;BME280;19910;42.652;23.332;2023-02-08T00:24:34;96212.28;;;-4.75;75.52
23176;BME280;19910;42.652;23.332;2023-02-08T00:27:00;96207.63;;;-4.73;75.90
23176;BME280;19910;42.652;23.332;2023-02-08T00:29:27;96192.00;;;-4.68;75.83
23176;BME280;19910;42.652;23.332;2023-02-08T00:31:54;96213.53;;;-4.71;75.66
23176;BME280;19910;42.652;23.332;2023-02-08T00:34:22;96220.84;;;-4.73;75.98
23176;BME280;19910;42.652;23.332;2023-02-08T00:36:49;96226.31;;;-4.75;75.72
23176;BME280;19910;42.652;23.332;2023-02-08T00:39:16;96219.63;;;-4.71;75.12
23176;BME280;19910;42.652;23.332;2023-02-08T00:41:42;96232.03;;;-4.71;75.90
23176;BME280;19910;42.652;23.332;2023-02-08T00:44:09;96236.69;;;-4.73;75.64
23176;BME280;19910;42.652;23.332;2023-02-08T00:46:36;96241.59;;;-4.70;75.94
23176;BME280;19910;42.652;23.332;2023-02-08T00:49:03;96239.81;;;-4.63;75.32
23176;BME280;19910;42.652;23.332;2023-02-08T00:51:31;96240.63;;;-4.62;75.71
23176;BME280;19910;42.652;23.332;2023-02-08T00:53:58;96237.47;;;-4.79;75.53
23176;BME280;19910;42.652;23.332;2023-02-08T00:56:24;96240.34;;;-4.74;76.13
23176;BME280;19910;42.652;23.332;2023-02-08T00:58:51;96235.94;;;-4.67;75.95
23176;BME280;19910;42.652;23.332;2023-02-08T01:01:18;96238.03;;;-4.56;75.42
23176;BME280;19910;42.652;23.332;2023-02-08T01:03:45;96240.91;;;-4.51;75.59
23176;BME280;19910;42.652;23.332;2023-02-08T01:06:14;96234.81;;;-4.51;75.65
23176;BME280;19910;42.652;23.332;2023-02-08T01:08:42;96249.91;;;-4.45;75.87
23176;BME280;19910;42.652;23.332;2023-02-08T01:11:11;96249.38;;;-4.62;76.07
23176;BME280;19910;42.652;23.332;2023-02-08T01:13:39;96247.00;;;-4.50;76.23
23176;BME280;19910;42.652;23.332;2023-02-08T01:16:07;96242.59;;;-4.43;76.16
23176;BME280;19910;42.652;23.332;2023-02-08T01:18:35;96246.81;;;-4.49;75.40
23176;BME280;19910;42.652;23.332;2023-02-08T01:21:04;96240.31;;;-4.46;75.74
23176;BME280;19910;42.652;23.332;2023-02-08T01:23:31;96242.31;;;-4.20;75.83
23176;BME280;19910;42.652;23.332;2023-02-08T01:25:59;96242.16;;;-4.12;75.51
23176;BME280;19910;42.652;23.332;2023-02-08T01:28:26;96242.47;;;-4.28;75.93
23176;BME280;19910;42.652;23.332;2023-02-08T01:30:53;96242.53;;;-4.50;76.20
23176;BME280;19910;42.652;23.332;2023-02-08T01:33:19;96242.53;;;-4.50;76.49
23176;BME280;19910;42.652;23.332;2023-02-08T01:35:49;96224.66;;;-4.48;77.52
23176;BME280;19910;42.652;23.332;2023-02-08T01:38:16;96234.47;;;-4.42;76.95
23176;BME280;19910;42.652;23.332;2023-02-08T01:40:43;96240.56;;;-4.41;76.44
23176;BME280;19910;42.652;23.332;2023-02-08T01:43:20;96228.94;;;-4.47;77.18
23176;BME280;19910;42.652;23.332;2023-02-08T01:45:47;96238.03;;;-4.56;76.09
23176;BME280;19910;42.652;23.332;2023-02-08T01:48:17;96238.34;;;-4.72;77.15
23176;BME280;19910;42.652;23.332;2023-02-08T01:50:50;96236.31;;;-4.70;76.86
23176;BME280;19910;42.652;23.332;2023-02-08T01:53:20;96222.72;;;-4.67;77.03
23176;BME280;19910;42.652;23.332;2023-02-08T01:55:51;96238.53;;;-4.74;76.73
23176;BME280;19910;42.652;23.332;2023-02-08T01:58:23;96247.25;;;-4.73;76.73
23176;BME280;19910;42.652;23.332;2023-02-08T02:00:51;96245.63;;;-4.74;78.04
23176;BME280;19910;42.652;23.332;2023-02-08T02:03:19;96257.50;;;-4.63;78.24
23176;BME280;19910;42.652;23.332;2023-02-08T02:05:50;96259.00;;;-4.82;77.54
23176;BME280;19910;42.652;23.332;2023-02-08T02:08:18;96251.28;;;-4.77;77.88
23176;BME280;19910;42.652;23.332;2023-02-08T02:10:46;96248.09;;;-4.73;78.11
23176;BME280;19910;42.652;23.332;2023-02-08T02:13:17;96258.84;;;-4.74;77.60
23176;BME280;19910;42.652;23.332;2023-02-08T02:15:47;96255.34;;;-4.81;77.87
23176;BME280;19910;42.652;23.332;2023-02-08T02:18:20;96266.78;;;-4.74;77.98
23176;BME280;19910;42.652;23.332;2023-02-08T02:21:03;96268.69;;;-4.89;78.55
23176;BME280;19910;42.652;23.332;2023-02-08T02:24:02;96273.22;;;-4.83;78.20
23176;BME280;19910;42.652;23.332;2023-02-08T02:32:59;96276.97;;;-4.71;78.99
23176;BME280;19910;42.652;23.332;2023-02-08T02:35:35;96273.59;;;-4.86;80.27
23176;BME280;19910;42.652;23.332;2023-02-08T02:38:11;96279.66;;;-4.92;81.17
23176;BME280;19910;42.652;23.332;2023-02-08T02:40:48;96284.13;;;-4.93;80.99
23176;BME280;19910;42.652;23.332;2023-02-08T02:43:22;96290.75;;;-4.76;82.04
23176;BME280;19910;42.652;23.332;2023-02-08T02:46:19;96281.88;;;-4.68;81.10
23176;BME280;19910;42.652;23.332;2023-02-08T02:48:53;96282.25;;;-4.71;81.55
23176;BME280;19910;42.652;23.332;2023-02-08T02:51:26;96280.81;;;-4.74;81.73
23176;BME280;19910;42.652;23.332;2023-02-08T02:53:58;96283.53;;;-4.67;81.38
23176;BME280;19910;42.652;23.332;2023-02-08T02:56:30;96286.88;;;-4.52;81.69
23176;BME280;19910;42.652;23.332;2023-02-08T02:59:03;96276.22;;;-4.65;81.61
23176;BME280;19910;42.652;23.332;2023-02-08T03:01:31;96282.34;;;-4.58;80.95
23176;BME280;19910;42.652;23.332;2023-02-08T03:03:59;96290.03;;;-4.63;82.32
23176;BME280;19910;42.652;23.332;2023-02-08T03:06:36;96294.94;;;-4.60;82.35
23176;BME280;19910;42.652;23.332;2023-02-08T03:09:23;96292.06;;;-4.65;83.30
23176;BME280;19910;42.652;23.332;2023-02-08T03:11:56;96293.22;;;-4.46;83.10
23176;BME280;19910;42.652;23.332;2023-02-08T03:14:40;96291.66;;;-4.62;82.71
23176;BME280;19910;42.652;23.332;2023-02-08T03:17:39;96296.75;;;-4.88;83.23
23176;BME280;19910;42.652;23.332;2023-02-08T03:20:14;96287.59;;;-4.92;84.16
23176;BME280;19910;42.652;23.332;2023-02-08T03:22:53;96289.13;;;-4.77;84.48
23176;BME280;19910;42.652;23.332;2023-02-08T03:25:29;96283.91;;;-4.70;84.04
23176;BME280;19910;42.652;23.332;2023-02-08T03:28:02;96274.84;;;-4.82;84.35
23176;BME280;19910;42.652;23.332;2023-02-08T03:30:34;96276.88;;;-4.84;84.44
23176;BME280;19910;42.652;23.332;2023-02-08T03:33:13;96279.06;;;-4.88;84.83
23176;BME280;19910;42.652;23.332;2023-02-08T03:35:47;96279.66;;;-4.92;84.47
23176;BME280;19910;42.652;23.332;2023-02-08T03:38:19;96289.72;;;-5.03;84.10
23176;BME280;19910;42.652;23.332;2023-02-08T03:40:51;96285.94;;;-5.15;83.80
23176;BME280;19910;42.652;23.332;2023-02-08T03:43:23;96287.91;;;-5.23;84.97
23176;BME280;19910;42.652;23.332;2023-02-08T03:45:56;96286.06;;;-5.23;84.60
23176;BME280;19910;42.652;23.332;2023-02-08T03:48:25;96297.56;;;-5.30;84.58
23176;BME280;19910;42.652;23.332;2023-02-08T03:50:56;96299.56;;;-5.32;85.60
23176;BME280;19910;42.652;23.332;2023-02-08T03:53:26;96309.22;;;-5.25;86.37
23176;BME280;19910;42.652;23.332;2023-02-08T03:55:58;96308.91;;;-5.37;85.40
23176;BME280;19910;42.652;23.332;2023-02-08T03:58:30;96305.53;;;-5.45;85.95
23176;BME280;19910;42.652;23.332;2023-02-08T04:01:06;96305.84;;;-5.55;86.81
23176;BME280;19910;42.652;23.332;2023-02-08T04:03:38;96302.38;;;-5.55;87.18
23176;BME280;19910;42.652;23.332;2023-02-08T04:06:07;96315.13;;;-5.59;87.10
23176;BME280;19910;42.652;23.332;2023-02-08T04:08:34;96311.78;;;-5.67;87.34
23176;BME280;19910;42.652;23.332;2023-02-08T04:11:01;96317.44;;;-5.70;87.90
23176;BME280;19910;42.652;23.332;2023-02-08T04:13:27;96321.06;;;-5.72;87.55
23176;BME280;19910;42.652;23.332;2023-02-08T04:15:54;96325.34;;;-5.70;87.07
23176;BME280;19910;42.652;23.332;2023-02-08T04:18:21;96325.47;;;-5.79;87.47
23176;BME280;19910;42.652;23.332;2023-02-08T04:20:48;96332.72;;;-5.81;87.79
23176;BME280;19910;42.652;23.332;2023-02-08T04:23:16;96328.34;;;-5.74;88.87
23176;BME280;19910;42.652;23.332;2023-02-08T04:25:43;96332.25;;;-5.69;88.08
23176;BME280;19910;42.652;23.332;2023-02-08T04:28:09;96328.25;;;-5.65;88.10
23176;BME280;19910;42.652;23.332;2023-02-08T04:30:36;96335.81;;;-5.62;88.29
23176;BME280;19910;42.652;23.332;2023-02-08T04:33:03;96322.63;;;-5.62;87.85
23176;BME280;19910;42.652;23.332;2023-02-08T04:35:30;96332.59;;;-5.58;88.32
23176;BME280;19910;42.652;23.332;2023-02-08T04:37:56;96339.66;;;-5.44;88.86
23176;BME280;19910;42.652;23.332;2023-02-08T04:40:24;96336.03;;;-5.43;88.50
23176;BME280;19910;42.652;23.332;2023-02-08T04:42:51;96335.44;;;-5.23;88.96
23176;BME280;19910;42.652;23.332;2023-02-08T04:45:18;96331.47;;;-5.13;88.21
23176;BME280;19910;42.652;23.332;2023-02-08T04:47:45;96339.09;;;-5.03;87.10
23176;BME280;19910;42.652;23.332;2023-02-08T04:50:11;96338.41;;;-5.12;87.22
23176;BME280;19910;42.652;23.332;2023-02-08T04:52:38;96334.00;;;-5.05;86.41
23176;BME280;19910;42.652;23.332;2023-02-08T04:55:06;96338.78;;;-5.15;86.36
23176;BME280;19910;42.652;23.332;2023-02-08T04:57:34;96337.72;;;-4.99;86.73
23176;BME280;19910;42.652;23.332;2023-02-08T05:00:01;96349.41;;;-5.08;86.35
23176;BME280;19910;42.652;23.332;2023-02-08T05:02:28;96361.41;;;-5.27;86.26
23176;BME280;19910;42.652;23.332;2023-02-08T05:04:54;96368.69;;;-5.29;86.10
23176;BME280;19910;42.652;23.332;2023-02-08T05:07:21;96379.09;;;-5.42;86.79
23176;BME280;19910;42.652;23.332;2023-02-08T05:09:48;96387.81;;;-5.42;85.81
23176;BME280;19910;42.652;23.332;2023-02-08T05:12:14;96380.56;;;-5.54;86.67
23176;BME280;19910;42.652;23.332;2023-02-08T05:14:43;96391.31;;;-5.70;87.92
23176;BME280;19910;42.652;23.332;2023-02-08T05:17:09;96389.25;;;-5.60;87.01
23176;BME280;19910;42.652;23.332;2023-02-08T05:19:36;96395.25;;;-5.66;88.28
23176;BME280;19910;42.652;23.332;2023-02-08T05:22:03;96400.03;;;-5.55;88.08
23176;BME280;19910;42.652;23.332;2023-02-08T05:24:30;96397.88;;;-5.66;87.65
23176;BME280;19910;42.652;23.332;2023-02-08T05:26:56;96397.69;;;-5.80;87.77
23176;BME280;19910;42.652;23.332;2023-02-08T05:29:23;96399.88;;;-5.68;88.48
23176;BME280;19910;42.652;23.332;2023-02-08T05:31:51;96395.13;;;-5.58;88.72
23176;BME280;19910;42.652;23.332;2023-02-08T05:34:18;96406.44;;;-5.64;88.58
23176;BME280;19910;42.652;23.332;2023-02-08T05:36:45;96400.16;;;-5.63;87.25
23176;BME280;19910;42.652;23.332;2023-02-08T05:39:11;96404.25;;;-5.61;87.23
23176;BME280;19910;42.652;23.332;2023-02-08T05:41:38;96405.63;;;-5.65;87.84
23176;BME280;19910;42.652;23.332;2023-02-08T05:44:05;96410.16;;;-5.59;88.35
23176;BME280;19910;42.652;23.332;2023-02-08T05:46:31;96409.50;;;-5.46;87.99
23176;BME280;19910;42.652;23.332;2023-02-08T05:49:00;96416.16;;;-5.35;87.93
23176;BME280;19910;42.652;23.332;2023-02-08T05:51:26;96413.75;;;-5.30;87.96
23176;BME280;19910;42.652;23.332;2023-02-08T05:53:53;96412.97;;;-4.95;87.28
23176;BME280;19910;42.652;23.332;2023-02-08T05:56:20;96415.66;;;-4.88;86.56
23176;BME280;19910;42.652;23.332;2023-02-08T05:58:46;96412.41;;;-4.48;86.21
23176;BME280;19910;42.652;23.332;2023-02-08T06:01:13;96411.03;;;-4.44;84.44
23176;BME280;19910;42.652;23.332;2023-02-08T06:03:40;96404.13;;;-3.89;83.34
23176;BME280;19910;42.652;23.332;2023-02-08T06:06:08;96408.25;;;-3.39;81.25
23176;BME280;19910;42.652;23.332;2023-02-08T06:08:36;96403.78;;;-2.91;78.97
23176;BME280;19910;42.652;23.332;2023-02-08T06:11:03;96380.59;;;-2.49;77.04
23176;BME280;19910;42.652;23.332;2023-02-08T06:13:30;96390.19;;;-1.95;75.25
23176;BME280;19910;42.652;23.332;2023-02-08T06:15:57;96389.84;;;-1.28;72.34
23176;BME280;19910;42.652;23.332;2023-02-08T06:18:24;96399.50;;;-0.89;71.04
23176;BME280;19910;42.652;23.332;2023-02-08T06:20:51;96395.75;;;-0.75;69.83
23176;BME280;19910;42.652;23.332;2023-02-08T06:23:21;96391.19;;;-0.05;67.94
23176;BME280;19910;42.652;23.332;2023-02-08T06:25:48;96390.69;;;0.48;65.50
23176;BME280;19910;42.652;23.332;2023-02-08T06:28:15;96382.25;;;1.06;63.35
23176;BME280;19910;42.652;23.332;2023-02-08T06:30:42;96373.88;;;4.04;90.17
23176;BME280;19910;42.652;23.332;2023-02-08T06:33:09;96367.34;;;5.11;86.33
23176;BME280;19910;42.652;23.332;2023-02-08T06:35:36;96371.94;;;4.16;76.48
23176;BME280;19910;42.652;23.332;2023-02-08T06:38:03;96369.53;;;6.16;80.04
23176;BME280;19910;42.652;23.332;2023-02-08T06:40:31;96380.22;;;4.48;62.74
23176;BME280;19910;42.652;23.332;2023-02-08T06:42:58;96391.13;;;3.35;57.72
23176;BME280;19910;42.652;23.332;2023-02-08T06:45:25;96400.31;;;2.05;58.06
23176;BME280;19910;42.652;23.332;2023-02-08T06:47:52;96415.75;;;-0.27;61.68
23176;BME280;19910;42.652;23.332;2023-02-08T06:50:19;96417.66;;;-1.24;65.77
23176;BME280;19910;42.652;23.332;2023-02-08T06:52:45;96414.75;;;-1.22;66.48
23176;BME280;19910;42.652;23.332;2023-02-08T06:55:13;96415.31;;;-1.65;68.06
23176;BME280;19910;42.652;23.332;2023-02-08T06:57:41;96419.19;;;-2.00;69.77
23176;BME280;19910;42.652;23.332;2023-02-08T07:00:09;96424.72;;;-2.08;70.33
23176;BME280;19910;42.652;23.332;2023-02-08T07:02:36;96439.09;;;-2.70;70.43
23176;BME280;19910;42.652;23.332;2023-02-08T07:05:04;96439.09;;;-3.31;72.17
23176;BME280;19910;42.652;23.332;2023-02-08T07:07:30;96429.66;;;-2.93;71.89
23176;BME280;19910;42.652;23.332;2023-02-08T07:09:57;96427.03;;;-2.86;71.42
23176;BME280;19910;42.652;23.332;2023-02-08T07:12:24;96423.81;;;-2.75;69.04
23176;BME280;19910;42.652;23.332;2023-02-08T07:14:52;96436.53;;;-3.11;70.02
23176;BME280;19910;42.652;23.332;2023-02-08T07:17:19;96441.00;;;-3.12;69.93
23176;BME280;19910;42.652;23.332;2023-02-08T07:19:46;96452.34;;;-3.25;70.75
23176;BME280;19910;42.652;23.332;2023-02-08T07:22:12;96450.47;;;-3.37;70.33
23176;BME280;19910;42.652;23.332;2023-02-08T07:24:40;96445.75;;;-3.01;72.18
23176;BME280;19910;42.652;23.332;2023-02-08T07:27:09;96460.75;;;-3.21;70.01
23176;BME280;19910;42.652;23.332;2023-02-08T07:29:36;96455.16;;;-2.85;70.43
23176;BME280;19910;42.652;23.332;2023-02-08T07:32:06;96467.72;;;-2.46;68.18
23176;BME280;19910;42.652;23.332;2023-02-08T07:34:34;96467.69;;;-2.59;68.36
23176;BME280;19910;42.652;23.332;2023-02-08T07:37:02;96472.84;;;-2.51;68.75
23176;BME280;19910;42.652;23.332;2023-02-08T07:39:29;96456.97;;;-2.25;69.38
23176;BME280;19910;42.652;23.332;2023-02-08T07:41:56;96456.56;;;-2.22;68.09
23176;BME280;19910;42.652;23.332;2023-02-08T07:44:23;96466.28;;;-2.55;69.34
23176;BME280;19910;42.652;23.332;2023-02-08T07:46:50;96467.06;;;-2.74;69.84
23176;BME280;19910;42.652;23.332;2023-02-08T07:49:18;96471.53;;;-3.23;70.45
23176;BME280;19910;42.652;23.332;2023-02-08T07:51:45;96476.44;;;-2.72;70.62
23176;BME280;19910;42.652;23.332;2023-02-08T07:54:11;96473.00;;;-2.59;68.50
23176;BME280;19910;42.652;23.332;2023-02-08T07:56:38;96462.59;;;-2.74;68.81
23176;BME280;19910;42.652;23.332;2023-02-08T07:59:05;96462.59;;;-2.67;68.53
23176;BME280;19910;42.652;23.332;2023-02-08T08:01:32;96471.44;;;-3.01;69.36
23176;BME280;19910;42.652;23.332;2023-02-08T08:03:58;96466.69;;;-2.65;69.77
23176;BME280;19910;42.652;23.332;2023-02-08T08:06:27;96460.25;;;-2.09;68.96
23176;BME280;19910;42.652;23.332;2023-02-08T08:08:53;96455.53;;;-1.55;68.24
23176;BME280;19910;42.652;23.332;2023-02-08T08:11:20;96452.22;;;-1.30;66.17
23176;BME280;19910;42.652;23.332;2023-02-08T08:13:48;96449.56;;;-0.73;66.29
23176;BME280;19910;42.652;23.332;2023-02-08T08:16:15;96451.91;;;-0.51;64.54
23176;BME280;19910;42.652;23.332;2023-02-08T08:18:42;96447.81;;;-0.16;62.91
23176;BME280;19910;42.652;23.332;2023-02-08T08:21:09;96442.22;;;-0.39;63.41
23176;BME280;19910;42.652;23.332;2023-02-08T08:23:38;96443.16;;;-0.58;62.89
23176;BME280;19910;42.652;23.332;2023-02-08T08:26:09;96443.22;;;-0.78;62.10
23176;BME280;19910;42.652;23.332;2023-02-08T08:28:38;96455.91;;;-0.74;63.18
23176;BME280;19910;42.652;23.332;2023-02-08T08:31:09;96448.91;;;-0.68;62.99
23176;BME280;19910;42.652;23.332;2023-02-08T08:33:36;96450.69;;;-1.00;63.09
23176;BME280;19910;42.652;23.332;2023-02-08T08:36:02;96457.19;;;-0.83;61.64
23176;BME280;19910;42.652;23.332;2023-02-08T08:38:29;96453.03;;;-0.72;62.50
23176;BME280;19910;42.652;23.332;2023-02-08T08:41:00;96462.13;;;-0.48;61.72
23176;BME280;19910;42.652;23.332;2023-02-08T08:43:27;96455.09;;;-0.81;61.35
23176;BME280;19910;42.652;23.332;2023-02-08T08:45:56;96463.22;;;-1.20;61.50
23176;BME280;19910;42.652;23.332;2023-02-08T08:48:23;96463.00;;;-1.12;60.84
23176;BME280;19910;42.652;23.332;2023-02-08T08:50:49;96463.06;;;-1.25;60.62
23176;BME280;19910;42.652;23.332;2023-02-08T08:53:16;96473.53;;;-1.57;61.56
23176;BME280;19910;42.652;23.332;2023-02-08T08:55:43;96474.53;;;-1.58;61.45
23176;BME280;19910;42.652;23.332;2023-02-08T08:58:11;96477.44;;;-1.79;62.24
23176;BME280;19910;42.652;23.332;2023-02-08T09:00:38;96479.63;;;-1.36;62.15
23176;BME280;19910;42.652;23.332;2023-02-08T09:03:05;96467.59;;;-1.52;63.26
23176;BME280;19910;42.652;23.332;2023-02-08T09:05:32;96481.72;;;-1.65;63.32
23176;BME280;19910;42.652;23.332;2023-02-08T09:07:58;96483.94;;;-1.62;63.93
23176;BME280;19910;42.652;23.332;2023-02-08T09:10:27;96482.63;;;-1.00;64.12
23176;BME280;19910;42.652;23.332;2023-02-08T09:12:55;96487.84;;;-0.80;61.43
23176;BME280;19910;42.652;23.332;2023-02-08T09:15:23;96481.69;;;-1.38;61.00
23176;BME280;19910;42.652;23.332;2023-02-08T09:17:50;96502.34;;;-1.93;62.00
23176;BME280;19910;42.652;23.332;2023-02-08T09:20:17;96499.88;;;-1.88;61.82
23176;BME280;19910;42.652;23.332;2023-02-08T09:22:43;96497.44;;;-1.57;60.99
23176;BME280;19910;42.652;23.332;2023-02-08T09:25:10;96491.69;;;-1.47;60.77
23176;BME280;19910;42.652;23.332;2023-02-08T09:27:37;96508.06;;;-1.57;59.66
23176;BME280;19910;42.652;23.332;2023-02-08T09:30:04;96501.91;;;-1.77;60.13
23176;BME280;19910;42.652;23.332;2023-02-08T09:32:33;96507.84;;;-1.88;60.78
23176;BME280;19910;42.652;23.332;2023-02-08T09:35:01;96513.34;;;-2.09;61.05
23176;BME280;19910;42.652;23.332;2023-02-08T09:37:27;96497.84;;;-1.99;62.96
23176;BME280;19910;42.652;23.332;2023-02-08T09:39:54;96500.31;;;-1.52;62.04
23176;BME280;19910;42.652;23.332;2023-02-08T09:42:28;96491.47;;;-1.26;61.56
23176;BME280;19910;42.652;23.332;2023-02-08T09:45:23;96499.81;;;-1.09;59.11
23176;BME280;19910;42.652;23.332;2023-02-08T09:47:59;96484.28;;;-1.12;58.73
23176;BME280;19910;42.652;23.332;2023-02-08T09:50:32;96483.78;;;-0.83;59.84
23176;BME280;19910;42.652;23.332;2023-02-08T09:53:03;96484.63;;;-0.89;58.85
23176;BME280;19910;42.652;23.332;2023-02-08T09:55:35;96481.34;;;-0.91;58.92
23176;BME280;19910;42.652;23.332;2023-02-08T09:58:07;96493.88;;;-0.98;58.08
23176;BME280;19910;42.652;23.332;2023-02-08T10:00:41;96487.28;;;-0.89;59.47
23176;BME280;19910;42.652;23.332;2023-02-08T10:03:21;96476.78;;;-0.70;58.43
23176;BME280;19910;42.652;23.332;2023-02-08T10:05:49;96488.31;;;-0.90;58.65
23176;BME280;19910;42.652;23.332;2023-02-08T10:08:15;96476.50;;;-1.20;58.99
23176;BME280;19910;42.652;23.332;2023-02-08T10:10:47;96475.91;;;-1.22;59.01
23176;BME280;19910;42.652;23.332;2023-02-08T10:13:25;96482.94;;;-1.54;58.75
23176;BME280;19910;42.652;23.332;2023-02-08T10:16:02;96472.44;;;-1.23;59.55
23176;BME280;19910;42.652;23.332;2023-02-08T10:18:39;96479.06;;;-1.65;59.57
23176;BME280;19910;42.652;23.332;2023-02-08T10:21:19;96483.16;;;-1.82;60.10
23176;BME280;19910;42.652;23.332;2023-02-08T10:24:08;96474.56;;;-1.64;60.60
23176;BME280;19910;42.652;23.332;2023-02-08T10:26:43;96481.91;;;-1.73;59.71
23176;BME280;19910;42.652;23.332;2023-02-08T10:29:36;96479.44;;;-1.55;60.21
23176;BME280;19910;42.652;23.332;2023-02-08T10:32:30;96483.75;;;-0.69;61.17
23176;BME280;19910;42.652;23.332;2023-02-08T10:35:08;96474.00;;;-0.44;57.20
23176;BME280;19910;42.652;23.332;2023-02-08T10:37:39;96483.44;;;-1.06;58.00
23176;BME280;19910;42.652;23.332;2023-02-08T10:40:15;96483.94;;;-1.62;58.82
23176;BME280;19910;42.652;23.332;2023-02-08T10:42:47;96479.81;;;-1.31;57.63
23176;BME280;19910;42.652;23.332;2023-02-08T10:45:21;96477.78;;;-1.36;57.93
23176;BME280;19910;42.652;23.332;2023-02-08T10:47:52;96471.63;;;-1.36;57.76
23176;BME280;19910;42.652;23.332;2023-02-08T10:50:24;96482.00;;;-1.02;56.09
23176;BME280;19910;42.652;23.332;2023-02-08T10:52:54;96479.47;;;-1.68;58.98
23176;BME280;19910;42.652;23.332;2023-02-08T10:55:21;96476.38;;;-1.38;59.93
23176;BME280;19910;42.652;23.332;2023-02-08T10:57:50;96479.38;;;-1.15;56.94
23176;BME280;19910;42.652;23.332;2023-02-08T11:00:20;96489.22;;;-1.29;57.46
23176;BME280;19910;42.652;23.332;2023-02-08T11:02:50;96476.50;;;-1.20;57.62
23176;BME280;19910;42.652;23.332;2023-02-08T11:05:30;96484.09;;;-1.17;57.79
23176;BME280;19910;42.652;23.332;2023-02-08T11:08:05;96480.63;;;-1.24;58.34
23176;BME280;19910;42.652;23.332;2023-02-08T11:10:32;96488.38;;;-1.16;57.57
23176;BME280;19910;42.652;23.332;2023-02-08T11:13:02;96484.94;;;-1.23;56.88
23176;BME280;19910;42.652;23.332;2023-02-08T11:15:39;96479.13;;;-1.00;57.02
23176;BME280;19910;42.652;23.332;2023-02-08T11:18:18;96481.72;;;-0.81;57.33
23176;BME280;19910;42.652;23.332;2023-02-08T11:20:49;96484.41;;;-0.87;58.35
23176;BME280;19910;42.652;23.332;2023-02-08T11:23:20;96480.84;;;-0.68;60.54
23176;BME280;19910;42.652;23.332;2023-02-08T11:25:48;96489.97;;;-1.02;59.60
23176;BME280;19910;42.652;23.332;2023-02-08T11:28:24;96490.88;;;-1.48;61.85
23176;BME280;19910;42.652;23.332;2023-02-08T11:30:57;96497.03;;;-1.67;62.87
23176;BME280;19910;42.652;23.332;2023-02-08T11:33:24;96490.88;;;-1.74;63.54
23176;BME280;19910;42.652;23.332;2023-02-08T11:36:05;96487.81;;;-1.45;63.02
23176;BME280;19910;42.652;23.332;2023-02-08T11:38:34;96482.72;;;-1.53;62.44
23176;BME280;19910;42.652;23.332;2023-02-08T11:41:03;96486.81;;;-1.70;63.08
23176;BME280;19910;42.652;23.332;2023-02-08T11:43:33;96490.88;;;-1.87;63.33
23176;BME280;19910;42.652;23.332;2023-02-08T11:46:02;96486.81;;;-2.09;64.52
23176;BME280;19910;42.652;23.332;2023-02-08T11:48:38;96479.66;;;-2.02;65.13
23176;BME280;19910;42.652;23.332;2023-02-08T11:51:08;96487.84;;;-1.97;64.13
23176;BME280;19910;42.652;23.332;2023-02-08T11:53:39;96492.09;;;-2.09;63.74
23176;BME280;19910;42.652;23.332;2023-02-08T11:56:16;96488.44;;;-1.95;63.56
23176;BME280;19910;42.652;23.332;2023-02-08T11:58:55;96490.47;;;-1.97;62.80
23176;BME280;19910;42.652;23.332;2023-02-08T12:01:25;96498.63;;;-2.12;63.26
23176;BME280;19910;42.652;23.332;2023-02-08T12:03:55;96498.03;;;-1.88;63.24
23176;BME280;19910;42.652;23.332;2023-02-08T12:06:51;96499.88;;;-1.88;62.98
23176;BME280;19910;42.652;23.332;2023-02-08T12:09:52;96489.66;;;-2.04;62.55
23176;BME280;19910;42.652;23.332;2023-02-08T12:12:33;96494.19;;;-1.92;62.17
23176;BME280;19910;42.652;23.332;2023-02-08T12:15:11;96494.56;;;-1.55;62.52
23176;BME280;19910;42.652;23.332;2023-02-08T12:17:55;96485.16;;;-1.58;63.05
23176;BME280;19910;42.652;23.332;2023-02-08T12:20:32;96498.66;;;-1.99;62.34
23176;BME280;19910;42.652;23.332;2023-02-08T12:23:17;96478.22;;;-2.05;63.23
23176;BME280;19910;42.652;23.332;2023-02-08T12:25:51;96486.38;;;-2.20;62.32
23176;BME280;19910;42.652;23.332;2023-02-08T12:28:29;96490.88;;;-2.13;63.03
23176;BME280;19910;42.652;23.332;2023-02-08T12:31:06;96490.47;;;-2.10;63.24
23176;BME280;19910;42.652;23.332;2023-02-08T12:33:46;96492.09;;;-2.23;61.68
23176;BME280;19910;42.652;23.332;2023-02-08T12:36:21;96488.41;;;-2.15;61.51
23176;BME280;19910;42.652;23.332;2023-02-08T12:39:07;96484.78;;;-1.94;62.02
23176;BME280;19910;42.652;23.332;2023-02-08T12:42:15;96484.38;;;-1.78;60.34
23176;BME280;19910;42.652;23.332;2023-02-08T12:45:02;96485.16;;;-1.91;59.33
23176;BME280;19910;42.652;23.332;2023-02-08T12:47:45;96487.22;;;-1.86;60.17
23176;BME280;19910;42.652;23.332;2023-02-08T12:50:25;96491.91;;;-1.88;59.98
23176;BME280;19910;42.652;23.332;2023-02-08T12:52:56;96490.88;;;-1.87;59.11
23176;BME280;19910;42.652;23.332;2023-02-08T12:55:29;96499.06;;;-1.95;59.38
23176;BME280;19910;42.652;23.332;2023-02-08T12:58:20;96497.84;;;-1.93;58.69
23176;BME280;19910;42.652;23.332;2023-02-08T13:00:49;96503.97;;;-1.86;59.31
23176;BME280;19910;42.652;23.332;2023-02-08T13:03:26;96503.16;;;-1.86;58.56
23176;BME280;19910;42.652;23.332;2023-02-08T13:05:56;96467.19;;;-1.89;58.83
23176;BME280;19910;42.652;23.332;2023-02-08T13:08:28;96512.56;;;-1.51;58.32
23176;BME280;19910;42.652;23.332;2023-02-08T13:11:00;96514.19;;;-1.63;58.44
23176;BME280;19910;42.652;23.332;2023-02-08T13:13:34;96519.09;;;-1.60;58.75